Time;durP1;ratioP1;P1;durP2;ratioP2;P2;SDS_P1;SDS_P2;PMS_P1;PMS_P2;Temp;Humidity;BMP_temperature;BMP_pressure;BME280_temperature;BME280_humidity;BME280_pressure;Samples;Min_cycle;Max_cycle;Signal;HPM_P1;HPM_P2
2024/01/19 00:00:14;;;;;;;1.15;1.05;;;-3.20;99.90;;;-3.52;100.00;100288.25;6068781;23;20243;-66
2024/01/19 00:02:43;;;;;;;2.72;2.15;;;-3.10;99.90;;;-3.61;100.00;100300.44;6068712;23;20163;-66
2024/01/19 00:05:11;;;;;;;2.50;2.33;;;-3.20;99.90;;;-3.66;100.00;100293.84;6068382;23;20217;-67
2024/01/19 00:07:40;;;;;;;3.50;3.13;;;-3.20;99.90;;;-3.63;100.00;100298.91;6069193;23;20283;-67
2024/01/19 00:10:10;;;;;;;4.55;3.28;;;-3.20;1.00;;;-3.53;100.00;100297.16;6069060;23;20235;-67
2024/01/19 00:12:38;;;;;;;11.15;5.70;;;-3.20;1.00;;;-3.52;100.00;100298.81;6068748;23;20164;-66
2024/01/19 00:15:09;;;;;;;1.95;0.88;;;-3.20;1.00;;;-3.59;100.00;100308.25;6068985;23;20509;-67
2024/01/19 00:17:39;;;;;;;2.17;2.05;;;-3.20;1.00;;;-3.60;100.00;100309.22;6075619;23;20184;-67
2024/01/19 00:20:11;;;;;;;1.35;1.25;;;-3.20;1.00;;;-3.59;100.00;100310.91;6073390;23;20235;-69
2024/01/19 00:22:40;;;;;;;1.98;1.73;;;-3.20;44.50;;;-3.44;100.00;100312.28;6069720;23;20163;-68
2024/01/19 00:25:09;;;;;;;1.83;1.35;;;-3.10;99.90;;;-3.35;100.00;100316.81;6068976;23;20537;-68
2024/01/19 00:27:37;;;;;;;0.93;0.85;;;-3.00;99.90;;;-3.34;100.00;100323.75;6068282;23;20246;-67
2024/01/19 00:30:07;;;;;;;3.35;3.05;;;-3.00;99.90;;;-3.36;100.00;100325.69;6069019;23;20168;-69
2024/01/19 00:32:38;;;;;;;10.32;2.25;;;-3.00;1.00;;;-3.38;100.00;100321.50;6077137;23;20215;-66
2024/01/19 00:35:07;;;;;;;3.72;3.42;;;-3.00;1.00;;;-3.31;100.00;100320.88;6067394;23;20152;-68
2024/01/19 00:37:37;;;;;;;1.27;1.17;;;-3.00;99.90;;;-3.28;100.00;100320.59;6068288;23;20200;-67
2024/01/19 00:40:11;;;;;;;8.55;2.97;;;-2.90;99.90;;;-3.29;100.00;100318.91;6068345;23;20188;-67
2024/01/19 00:42:41;;;;;;;0.80;0.70;;;-2.90;1.00;;;-3.33;100.00;100314.84;6068599;23;20164;-68
2024/01/19 00:45:11;;;;;;;2.45;1.17;;;-2.90;99.90;;;-3.28;100.00;100322.41;6068555;23;20169;-66
2024/01/19 00:47:41;;;;;;;1.02;0.93;;;-2.90;99.90;;;-3.33;100.00;100325.44;6068301;23;20593;-68
2024/01/19 00:50:15;;;;;;;2.85;1.52;;;-2.90;98.30;;;-3.30;100.00;100325.19;6069014;23;20168;-67
2024/01/19 00:52:44;;;;;;;0.90;0.80;;;-3.00;96.20;;;-3.31;100.00;100333.25;6068481;23;20180;-66
2024/01/19 00:55:13;;;;;;;2.03;1.75;;;-2.90;90.70;;;-3.28;100.00;100336.47;6068073;23;20248;-66
2024/01/19 00:57:41;;;;;;;3.92;3.53;;;-2.90;93.30;;;-3.29;100.00;100328.69;6068202;23;20188;-65
2024/01/19 01:00:12;;;;;;;2.45;2.33;;;-2.90;81.80;;;-3.32;100.00;100328.91;6068454;23;20178;-66
2024/01/19 01:02:42;;;;;;;0.90;0.75;;;-2.90;53.50;;;-3.31;100.00;100333.25;6068622;23;20163;-65
2024/01/19 01:05:11;;;;;;;1.05;0.95;;;-2.90;57.00;;;-3.27;100.00;100330.22;6068534;23;20156;-64
2024/01/19 01:07:39;;;;;;;2.00;1.88;;;-2.90;45.40;;;-3.32;100.00;100334.22;6068113;23;20188;-69
2024/01/19 01:10:10;;;;;;;1.10;1.00;;;-2.90;23.60;;;-3.23;100.00;100336.94;6068539;23;20168;-67
2024/01/19 01:12:38;;;;;;;2.50;2.30;;;-2.90;23.80;;;-3.25;100.00;100338.88;6068582;23;20167;-69
2024/01/19 01:15:08;;;;;;;3.10;2.13;;;-2.90;14.10;;;-3.23;100.00;100342.22;6067864;23;20155;-68
2024/01/19 01:17:39;;;;;;;1.55;1.45;;;-2.90;26.70;;;-3.24;100.00;100345.84;6069875;23;20188;-68
2024/01/19 01:20:12;;;;;;;2.38;1.67;;;-2.90;22.40;;;-3.19;100.00;100343.66;6069761;23;20172;-67
2024/01/19 01:22:41;;;;;;;1.50;1.40;;;-2.80;25.40;;;-3.23;100.00;100346.69;6069612;23;20157;-68
2024/01/19 01:25:09;;;;;;;0.88;0.75;;;-2.90;13.20;;;-3.21;100.00;100348.25;6067928;23;20172;-68
2024/01/19 01:27:38;;;;;;;1.50;1.30;;;-2.80;10.40;;;-3.35;100.00;100345.91;6069510;23;20188;-68
2024/01/19 01:30:09;;;;;;;1.75;1.15;;;-2.90;1.00;;;-3.33;100.00;100345.75;6069579;23;20172;-67
2024/01/19 01:32:38;;;;;;;1.70;1.45;;;-2.90;5.50;;;-3.33;100.00;100359.84;6069281;23;20168;-66
2024/01/19 01:35:09;;;;;;;1.05;0.95;;;-2.90;9.70;;;-3.40;100.00;100360.47;6069159;23;20245;-67
2024/01/19 01:37:37;;;;;;;2.85;2.65;;;-2.90;6.80;;;-3.43;100.00;100356.25;6069247;23;20191;-66
2024/01/19 01:40:08;;;;;;;3.83;3.53;;;-3.00;20.90;;;-3.39;100.00;100349.78;6069259;23;20180;-67
2024/01/19 01:42:37;;;;;;;2.58;2.47;;;-2.90;17.30;;;-3.38;100.00;100361.16;6069198;23;20153;-67
2024/01/19 01:45:06;;;;;;;4.00;2.92;;;-3.00;15.60;;;-3.43;100.00;100361.56;6069296;23;20204;-67
2024/01/19 01:47:35;;;;;;;4.32;2.58;;;-3.00;15.40;;;-3.36;100.00;100377.78;6069348;23;20203;-68
2024/01/19 01:50:06;;;;;;;2.45;1.35;;;-3.00;14.80;;;-3.30;100.00;100367.53;6069299;23;20202;-67
2024/01/19 01:52:36;;;;;;;2.55;1.48;;;-2.90;19.80;;;-3.43;100.00;100374.78;6069278;23;20161;-67
2024/01/19 01:55:05;;;;;;;1.80;1.35;;;-3.00;1.00;;;-3.24;100.00;100380.22;6069139;23;20172;-67
2024/01/19 01:57:34;;;;;;;5.80;2.28;;;-2.90;1.00;;;-3.21;100.00;100376.50;6091536;23;20196;-68
2024/01/19 02:00:03;;;;;;;1.75;1.65;;;-2.90;1.00;;;-3.21;100.00;100377.34;6069711;23;20353;-70
2024/01/19 02:02:33;;;;;;;1.85;1.75;;;-2.80;1.00;;;-3.29;100.00;100379.78;6069339;23;20157;-68
2024/01/19 02:05:02;;;;;;;2.63;2.35;;;-2.90;1.00;;;-3.35;100.00;100380.31;6069358;23;20157;-67
2024/01/19 02:07:31;;;;;;;1.38;1.27;;;-2.90;1.00;;;-3.33;100.00;100383.63;6084336;23;20195;-67
2024/01/19 02:10:02;;;;;;;4.72;1.13;;;-2.90;1.00;;;-3.30;100.00;100388.69;6072593;23;20503;-67
2024/01/19 02:12:31;;;;;;;1.67;1.58;;;-2.90;1.00;;;-3.34;100.00;100403.13;6069849;23;20148;-67
2024/01/19 02:14:59;;;;;;;1.90;1.45;;;-2.90;1.00;;;-3.34;100.00;100397.81;6091687;23;20168;-67
2024/01/19 02:17:28;;;;;;;7.60;5.57;;;-2.90;1.00;;;-3.34;100.00;100391.72;6069381;23;20188;-67
2024/01/19 02:19:56;;;;;;;8.98;4.72;;;-3.00;1.00;;;-3.33;100.00;100394.22;6069664;23;20184;-67
2024/01/19 02:22:25;;;;;;;7.32;3.03;;;-2.90;1.00;;;-3.43;100.00;100398.59;6074886;23;20168;-67
2024/01/19 02:24:55;;;;;;;1.05;0.95;;;-3.00;1.00;;;-3.35;100.00;100400.63;6076379;23;20235;-67
2024/01/19 02:27:25;;;;;;;2.08;1.77;;;-3.00;1.00;;;-3.39;100.00;100400.03;6075601;23;20192;-65
2024/01/19 02:29:54;;;;;;;1.48;1.35;;;-3.00;1.00;;;-3.33;100.00;100404.81;6075636;23;20164;-68
2024/01/19 02:32:22;;;;;;;6.20;3.35;;;-3.00;1.00;;;-3.34;100.00;100405.75;6075257;23;20159;-68
2024/01/19 02:34:51;;;;;;;2.25;1.10;;;-3.00;1.00;;;-3.33;100.00;100404.81;6077112;23;20224;-67
2024/01/19 02:37:20;;;;;;;36.50;4.22;;;-3.00;1.00;;;-3.29;100.00;100410.72;6078946;23;20704;-67
2024/01/19 02:39:49;;;;;;;2.35;2.15;;;-3.00;1.00;;;-3.31;100.00;100410.84;6078704;23;20195;-66
2024/01/19 02:42:19;;;;;;;1.75;1.60;;;-3.00;1.00;;;-3.30;100.00;100416.97;6077022;23;20191;-67
2024/01/19 02:44:48;;;;;;;3.78;3.15;;;-3.00;1.00;;;-3.30;100.00;100411.66;6074839;23;20487;-68
2024/01/19 02:47:16;;;;;;;3.10;1.95;;;-2.90;1.00;;;-3.35;100.00;100419.16;6073744;23;20199;-66
2024/01/19 02:49:45;;;;;;;2.38;1.35;;;-3.00;1.00;;;-3.28;100.00;100418.50;6073648;23;20164;-68
2024/01/19 02:52:14;;;;;;;1.45;1.35;;;-2.90;1.00;;;-3.31;100.00;100413.47;6071131;23;20231;-69
2024/01/19 02:54:43;;;;;;;2.03;1.58;;;-2.90;1.00;;;-3.29;100.00;100411.53;6072699;23;20157;-68
2024/01/19 02:57:11;;;;;;;1.50;1.40;;;-2.90;1.00;;;-3.33;100.00;100402.16;6073811;23;20629;-68
2024/01/19 02:59:41;;;;;;;6.47;2.67;;;-2.90;1.00;;;-3.40;100.00;100395.72;6073232;23;20486;-68
2024/01/19 03:02:11;;;;;;;2.40;1.27;;;-3.00;1.00;;;-3.33;100.00;100404.81;6094204;23;20164;-67
2024/01/19 03:04:40;;;;;;;2.15;1.98;;;-3.00;1.00;;;-3.27;100.00;100403.47;6069153;23;20164;-68
2024/01/19 03:07:08;;;;;;;2.40;2.20;;;-2.90;1.00;;;-3.28;100.00;100404.44;6068878;23;20188;-69
2024/01/19 03:09:50;;;;;;;2.38;1.98;;;-3.00;1.00;;;-3.30;100.00;100403.72;6067280;23;20614;-67
2024/01/19 03:12:19;;;;;;;1.27;1.17;;;-2.90;1.00;;;-3.27;100.00;100404.31;6069170;23;20152;-68
2024/01/19 03:14:49;;;;;;;2.58;2.35;;;-2.90;1.00;;;-3.20;100.00;100412.59;6068789;23;20208;-67
2024/01/19 03:17:19;;;;;;;1.23;1.10;;;-2.90;1.00;;;-3.19;100.00;100407.16;6067432;23;20184;-66
2024/01/19 03:19:47;;;;;;;2.78;2.58;;;-2.90;1.00;;;-3.16;100.00;100412.22;6069292;23;20184;-67
2024/01/19 03:22:16;;;;;;;4.45;1.73;;;-2.90;1.00;;;-3.15;100.00;100413.88;6069384;23;20235;-67
2024/01/19 03:24:45;;;;;;;6.18;2.38;;;-2.80;1.00;;;-3.13;100.00;100411.13;6069475;23;20557;-67
2024/01/19 03:27:14;;;;;;;3.38;3.17;;;-2.80;1.00;;;-3.13;100.00;100411.13;6069293;23;20184;-68
2024/01/19 03:29:44;;;;;;;0.80;0.60;;;-2.80;13.50;;;-3.09;100.00;100413.38;6068767;23;20165;-67
2024/01/19 03:32:14;;;;;;;1.00;0.80;;;-2.80;99.90;;;-3.05;100.00;100414.00;6070213;23;20157;-67
2024/01/19 03:34:43;;;;;;;1.52;1.40;;;-2.80;99.90;;;-3.07;100.00;100415.91;6069314;23;20546;-67
2024/01/19 03:37:12;;;;;;;2.10;1.90;;;-2.70;99.90;;;-2.96;100.00;100421.16;6068808;23;20676;-68
2024/01/19 03:39:41;;;;;;;1.75;1.65;;;-2.70;99.90;;;-2.87;100.00;100422.19;6068665;23;20188;-67
2024/01/19 03:42:10;;;;;;;1.00;0.70;;;-2.60;99.90;;;-2.79;100.00;100420.59;6068642;23;20507;-67
2024/01/19 03:44:40;;;;;;;0.80;0.50;;;-2.50;99.90;;;-2.86;100.00;100423.88;6068404;23;20172;-66
2024/01/19 03:47:09;;;;;;;1.02;0.93;;;-2.60;99.90;;;-2.81;100.00;100427.00;6068172;23;20664;-69
2024/01/19 03:49:40;;;;;;;0.80;0.70;;;-2.50;99.90;;;-2.88;100.00;100420.50;6067907;23;20170;-67
2024/01/19 03:52:09;;;;;;;0.90;0.77;;;-2.60;99.90;;;-2.78;100.00;100430.22;6068213;23;20236;-67
2024/01/19 03:54:38;;;;;;;2.33;1.60;;;-2.50;99.90;;;-2.75;100.00;100432.59;6068193;23;20157;-68
2024/01/19 03:57:09;;;;;;;2.00;1.58;;;-2.50;99.90;;;-2.69;100.00;100440.03;6068391;23;20239;-68
2024/01/19 03:59:37;;;;;;;2.03;1.92;;;-2.40;99.90;;;-2.57;100.00;100440.81;6066602;23;20251;-67
2024/01/19 04:02:06;;;;;;;0.93;0.82;;;-2.40;99.90;;;-2.48;100.00;100439.19;6068254;23;20251;-68
2024/01/19 04:04:35;;;;;;;2.95;2.70;;;-2.30;99.90;;;-2.37;100.00;100439.94;6068266;23;20495;-67
2024/01/19 04:07:05;;;;;;;0.80;0.70;;;-2.20;99.90;;;-2.36;100.00;100441.63;6068134;23;20187;-66
2024/01/19 04:09:34;;;;;;;3.90;2.25;;;-2.20;99.90;;;-2.33;100.00;100437.91;6068269;23;20656;-67
2024/01/19 04:12:12;;;;;;;8.25;2.15;;;-2.10;99.90;;;-2.40;100.00;100436.72;6068186;23;20157;-67
2024/01/19 04:14:42;;;;;;;2.28;2.17;;;-2.10;99.90;;;-2.47;100.00;100436.41;6068542;23;20547;-65
2024/01/19 04:17:12;;;;;;;1.50;1.38;;;-2.10;99.90;;;-2.43;100.00;100437.84;6068339;23;20184;-66
2024/01/19 04:19:41;;;;;;;1.80;1.58;;;-2.10;99.90;;;-2.45;100.00;100423.88;6068285;23;20171;-64
2024/01/19 04:22:11;;;;;;;4.32;1.58;;;-2.10;99.90;;;-2.52;100.00;100435.97;6068224;23;20195;-65
2024/01/19 04:24:39;;;;;;;3.13;2.92;;;-2.20;99.90;;;-2.45;100.00;100433.63;6067713;23;20549;-69
2024/01/19 04:27:08;;;;;;;1.65;1.02;;;-2.20;99.90;;;-2.46;100.00;100443.38;6067790;23;20231;-68
2024/01/19 04:29:37;;;;;;;4.18;2.83;;;-2.20;99.90;;;-2.45;100.00;100429.16;6067886;23;20259;-67
2024/01/19 04:32:06;;;;;;;1.10;1.00;;;-2.10;99.90;;;-2.35;100.00;100429.22;6067826;23;20171;-67
2024/01/19 04:34:35;;;;;;;1.67;1.10;;;-2.10;99.90;;;-2.43;100.00;100437.84;6068019;23;20170;-68
2024/01/19 04:37:03;;;;;;;1.33;1.23;;;-2.10;99.90;;;-2.45;100.00;100423.88;6068268;23;20188;-70
2024/01/19 04:39:34;;;;;;;1.30;1.20;;;-2.20;99.90;;;-2.46;100.00;100437.25;6068283;23;20180;-66
2024/01/19 04:42:03;;;;;;;1.63;1.52;;;-2.20;99.90;;;-2.48;100.00;100440.03;6068128;23;20172;-68
2024/01/19 04:44:31;;;;;;;1.05;0.95;;;-2.20;99.90;;;-2.36;100.00;100432.84;6068522;23;20606;-67
2024/01/19 04:47:00;;;;;;;3.08;1.25;;;-2.10;99.90;;;-2.36;100.00;100438.97;6068304;23;20207;-68
2024/01/19 04:49:28;;;;;;;1.17;1.08;;;-2.10;99.90;;;-2.37;100.00;100445.25;6068515;23;20164;-68
2024/01/19 04:51:57;;;;;;;0.80;0.70;;;-2.10;99.90;;;-2.43;100.00;100437.84;6069357;23;20152;-64
2024/01/19 04:54:26;;;;;;;1.77;1.67;;;-2.10;99.90;;;-2.32;100.00;100439.56;6082414;23;20184;-69
2024/01/19 04:56:56;;;;;;;1.25;1.10;;;-2.00;99.90;;;-2.31;100.00;100439.44;6074587;23;20239;-68
2024/01/19 04:59:24;;;;;;;1.00;0.90;;;-2.00;99.90;;;-2.40;100.00;100453.47;6095110;23;20168;-66
2024/01/19 05:01:53;;;;;;;1.00;0.90;;;-2.10;1.00;;;-2.40;100.00;100453.47;6069589;23;20513;-66
2024/01/19 05:04:22;;;;;;;1.52;1.27;;;-2.10;1.00;;;-2.41;100.00;100464.19;6070060;23;20162;-68
2024/01/19 05:06:51;;;;;;;10.93;1.02;;;-2.10;1.00;;;-2.43;100.00;100467.00;6069517;23;20194;-68
2024/01/19 05:09:19;;;;;;;1.77;1.67;;;-2.10;1.00;;;-2.32;100.00;100456.31;6069693;23;20211;-68
2024/01/19 05:11:48;;;;;;;7.40;2.45;;;-2.00;1.00;;;-2.30;100.00;100464.97;6069461;23;20490;-67
2024/01/19 05:14:18;;;;;;;2.42;2.25;;;-2.00;1.00;;;-2.27;100.00;100467.34;6069569;23;20168;-67
2024/01/19 05:16:47;;;;;;;3.65;2.70;;;-2.00;1.00;;;-2.21;100.00;100458.88;6069334;23;20215;-67
2024/01/19 05:19:16;;;;;;;1.80;1.52;;;-2.00;1.00;;;-2.24;100.00;100459.16;6069388;23;20175;-67
2024/01/19 05:21:44;;;;;;;4.22;2.58;;;-1.90;1.00;;;-2.35;100.00;100461.88;6067797;23;20184;-67
2024/01/19 05:24:13;;;;;;;0.85;0.68;;;-2.00;1.00;;;-2.31;100.00;100459.78;6069569;23;20237;-67
2024/01/19 05:26:42;;;;;;;0.80;0.68;;;-2.00;1.00;;;-2.26;100.00;100460.25;6069268;23;20652;-67
2024/01/19 05:29:10;;;;;;;1.80;1.70;;;-2.00;1.00;;;-2.30;100.00;100475.56;6069439;23;20505;-67
2024/01/19 05:31:40;;;;;;;2.65;2.20;;;-2.00;1.00;;;-2.28;100.00;100478.94;6069539;23;20509;-68
2024/01/19 05:34:09;;;;;;;0.93;0.82;;;-2.00;99.90;;;-2.27;100.00;100480.59;6069335;23;20152;-68
2024/01/19 05:36:40;;;;;;;0.80;0.60;;;-2.00;1.00;;;-2.27;100.00;100477.94;6069171;23;20212;-68
2024/01/19 05:39:08;;;;;;;1.27;1.17;;;-2.00;1.00;;;-2.30;100.00;100478.22;6069430;23;20164;-67
2024/01/19 05:41:37;;;;;;;1.27;1.05;;;-2.00;1.00;;;-2.29;100.00;100477.25;6069157;23;20177;-66
2024/01/19 05:44:06;;;;;;;2.85;2.65;;;-2.00;1.00;;;-2.32;100.00;100485.44;6069325;23;20172;-68
2024/01/19 05:46:34;;;;;;;1.08;0.98;;;-2.00;1.00;;;-2.30;100.00;100480.88;6069094;23;20231;-67
2024/01/19 05:49:04;;;;;;;3.10;2.85;;;-2.00;1.00;;;-2.31;100.00;100487.13;6069837;23;20167;-68
2024/01/19 05:51:33;;;;;;;1.80;1.70;;;-2.00;1.00;;;-2.33;100.00;100485.59;6069225;23;20240;-66
2024/01/19 05:54:02;;;;;;;1.10;0.80;;;-2.00;1.00;;;-2.28;100.00;100494.00;6069217;23;20168;-68
2024/01/19 05:56:31;;;;;;;1.58;1.48;;;-2.00;1.00;;;-2.28;100.00;100489.53;6069066;23;20184;-67
2024/01/19 05:58:59;;;;;;;1.10;0.95;;;-2.00;1.00;;;-2.28;100.00;100488.72;6069440;23;20153;-67
2024/01/19 06:01:28;;;;;;;0.90;0.70;;;-2.00;1.00;;;-2.36;100.00;100499.94;6069464;23;20637;-68
2024/01/19 06:04:00;;;;;;;2.83;2.55;;;-2.00;1.00;;;-2.37;100.00;100502.72;6068675;23;20219;-68
2024/01/19 06:06:30;;;;;;;0.80;0.50;;;-2.10;1.00;;;-2.37;100.00;100508.03;6069001;23;20732;-68
2024/01/19 06:08:59;;;;;;;2.28;2.08;;;-2.00;1.00;;;-2.40;100.00;100506.47;6068689;23;20155;-68
2024/01/19 06:11:27;;;;;;;1.25;0.90;;;-2.10;1.00;;;-2.33;100.00;100506.81;6069049;23;20610;-67
2024/01/19 06:13:56;;;;;;;3.50;3.33;;;-2.00;1.00;;;-2.32;100.00;100505.81;6069150;23;20172;-67
2024/01/19 06:16:25;;;;;;;2.05;1.95;;;-2.00;99.90;;;-2.32;100.00;100506.66;6069190;23;20258;-69
2024/01/19 06:18:53;;;;;;;5.18;1.00;;;-2.00;1.00;;;-2.31;100.00;100508.34;6069205;23;20573;-67
2024/01/19 06:21:22;;;;;;;0.80;0.60;;;-2.00;1.00;;;-2.28;100.00;100516.06;6069570;23;20518;-66
2024/01/19 06:23:52;;;;;;;2.75;1.35;;;-2.00;1.00;;;-2.15;100.00;100512.34;6069417;23;20171;-69
2024/01/19 06:26:21;;;;;;;1.60;1.50;;;-1.90;1.00;;;-2.23;100.00;100502.41;6069806;23;20263;-69
2024/01/19 06:28:50;;;;;;;0.80;0.50;;;-1.90;1.00;;;-2.15;100.00;100510.53;6069354;23;20219;-66
2024/01/19 06:31:18;;;;;;;0.80;0.60;;;-1.90;1.00;;;-2.13;100.00;100521.84;6069048;23;20180;-69
2024/01/19 06:33:47;;;;;;;2.55;1.67;;;-1.90;1.00;;;-2.13;99.67;100532.44;6068853;23;20176;-68
2024/01/19 06:36:16;;;;;;;0.90;0.70;;;-1.90;1.00;;;-2.08;100.00;100527.59;6068399;23;20191;-66
2024/01/19 06:38:44;;;;;;;2.97;1.05;;;-1.80;1.00;;;-2.04;99.92;100525.53;6068810;23;20169;-68
2024/01/19 06:41:16;;;;;;;0.80;0.50;;;-1.80;1.00;;;-2.01;99.63;100533.22;6068608;23;20203;-68
2024/01/19 06:43:45;;;;;;;1.02;0.60;;;-1.80;1.00;;;-2.03;99.74;100536.00;6069104;23;20208;-68
2024/01/19 06:46:14;;;;;;;1.50;0.82;;;-1.80;1.00;;;-1.99;99.67;100534.78;6068741;23;20194;-69
2024/01/19 06:48:43;;;;;;;0.98;0.70;;;-1.80;1.00;;;-2.00;99.26;100529.59;6068770;23;20152;-69
2024/01/19 06:51:17;;;;;;;1.00;0.70;;;-1.70;1.00;;;-1.96;99.30;100538.97;6068695;23;20161;-67
2024/01/19 06:53:45;;;;;;;0.80;0.57;;;-1.70;1.00;;;-1.99;99.71;100532.13;6068655;23;20157;-67
2024/01/19 06:56:15;;;;;;;2.75;0.98;;;-1.70;1.00;;;-2.01;99.50;100536.72;6068776;23;20184;-68
2024/01/19 06:58:44;;;;;;;1.10;0.98;;;-1.70;1.00;;;-1.92;99.62;100540.38;6068859;23;20167;-66
2024/01/19 07:01:13;;;;;;;2.35;2.15;;;-1.70;1.00;;;-1.93;99.41;100544.84;6069011;23;20188;-65
2024/01/19 07:03:42;;;;;;;1.88;1.77;;;-1.70;1.00;;;-1.90;99.01;100547.25;6068823;23;20177;-67
2024/01/19 07:06:11;;;;;;;0.80;0.50;;;-1.60;1.00;;;-1.98;99.94;100554.16;6091366;23;20221;-66
2024/01/19 07:08:40;;;;;;;1.38;1.27;;;-1.70;1.00;;;-1.90;99.62;100546.41;6069207;23;20187;-67
2024/01/19 07:11:08;;;;;;;2.15;1.00;;;-1.70;1.00;;;-1.89;99.36;100551.56;6069544;23;20231;-69
2024/01/19 07:13:38;;;;;;;2.40;1.40;;;-1.60;1.00;;;-1.92;100.00;100558.97;6073954;23;20152;-67
2024/01/19 07:16:08;;;;;;;0.80;0.60;;;-1.60;1.00;;;-1.81;99.10;100566.84;6073944;23;20196;-67
2024/01/19 07:18:37;;;;;;;3.88;1.25;;;-1.60;1.00;;;-1.76;98.86;100567.28;6072048;23;20168;-67
2024/01/19 07:21:06;;;;;;;1.20;1.10;;;-1.60;1.00;;;-1.74;99.31;100578.59;6070395;23;20550;-67
2024/01/19 07:23:37;;;;;;;4.03;2.78;;;-1.50;1.00;;;-1.70;98.78;100574.72;6091362;23;20195;-68
2024/01/19 07:26:06;;;;;;;2.00;1.60;;;-1.50;1.00;;;-1.69;98.29;100579.03;6091045;23;20196;-67
2024/01/19 07:28:34;;;;;;;1.58;1.23;;;-1.50;1.00;;;-1.62;98.86;100582.88;6068699;23;20606;-69
2024/01/19 07:31:04;;;;;;;1.08;0.90;;;-1.40;1.00;;;-1.68;99.35;100578.09;6068860;23;20501;-70
2024/01/19 07:33:33;;;;;;;3.88;2.20;;;-1.40;1.00;;;-1.59;98.45;100587.06;6068969;23;20155;-69
2024/01/19 07:36:05;;;;;;;1.10;0.75;;;-1.40;1.00;;;-1.62;98.96;100588.19;6068695;23;20271;-68
2024/01/19 07:38:34;;;;;;;0.80;0.50;;;-1.40;1.00;;;-1.50;98.39;100588.94;6068738;23;20164;-68
2024/01/19 07:41:06;;;;;;;0.80;0.70;;;-1.30;1.00;;;-1.55;98.53;100584.00;6068594;23;20152;-67
2024/01/19 07:43:34;;;;;;;0.80;0.60;;;-1.30;1.00;;;-1.48;98.79;100585.16;6067007;23;20613;-67
2024/01/19 07:46:05;;;;;;;1.20;0.90;;;-1.30;1.00;;;-1.39;97.85;100589.69;6067135;23;20197;-67
2024/01/19 07:48:34;;;;;;;5.32;2.65;;;-1.20;1.00;;;-1.32;98.00;100592.66;6068669;23;20163;-69
2024/01/19 07:51:03;;;;;;;3.17;3.00;;;-1.20;1.00;;;-1.35;97.67;100601.72;6068523;23;20168;-67
2024/01/19 07:53:32;;;;;;;0.90;0.80;;;-1.10;1.00;;;-1.31;97.20;100603.13;6068564;23;20629;-66
2024/01/19 07:56:01;;;;;;;1.00;0.85;;;-1.10;1.00;;;-1.23;96.81;100605.13;6068451;23;20184;-67
2024/01/19 07:58:30;;;;;;;1.00;0.90;;;-1.00;1.00;;;-1.24;96.73;100607.91;6068320;23;20179;-67
2024/01/19 08:00:59;;;;;;;3.95;3.75;;;-1.00;1.00;;;-1.15;96.93;100618.56;6068533;23;20548;-66
2024/01/19 08:03:30;;;;;;;1.65;1.55;;;-1.00;1.00;;;-1.11;96.71;100627.09;6068546;23;20184;-67
2024/01/19 08:05:58;;;;;;;4.15;1.65;;;-0.90;1.00;;;-1.01;96.55;100620.00;6068542;23;20271;-68
2024/01/19 08:08:27;;;;;;;2.25;2.05;;;-0.90;1.00;;;-0.97;96.41;100616.94;6068188;23;20195;-66
2024/01/19 08:10:56;;;;;;;1.65;0.98;;;-0.80;1.00;;;-0.95;95.65;100619.47;6068360;23;20207;-69
2024/01/19 08:13:25;;;;;;;0.80;0.50;;;-0.80;1.00;;;-0.94;95.88;100615.84;6068091;23;20167;-68
2024/01/19 08:15:53;;;;;;;2.65;2.42;;;-0.70;1.00;;;-0.91;95.51;100620.88;6068420;23;20279;-67
2024/01/19 08:18:22;;;;;;;1.10;1.00;;;-0.70;1.00;;;-0.90;95.67;100622.56;6066968;23;20172;-68
2024/01/19 08:20:52;;;;;;;2.72;2.53;;;-0.70;1.00;;;-0.77;95.42;100628.47;6068491;23;20156;-66
2024/01/19 08:23:21;;;;;;;2.72;2.53;;;-0.60;1.00;;;-0.69;95.24;100627.81;6068163;23;20232;-66
2024/01/19 08:25:50;;;;;;;6.43;3.63;;;-0.50;1.00;;;-0.73;95.35;100629.06;6068275;23;20665;-68
2024/01/19 08:28:18;;;;;;;2.13;1.55;;;-0.60;1.00;;;-0.70;95.69;100642.06;6068269;23;20239;-66
2024/01/19 08:30:47;;;;;;;2.70;2.53;;;-0.50;11.00;;;-0.62;95.66;100643.03;6067884;23;20564;-67
2024/01/19 08:33:15;;;;;;;2.15;1.83;;;-0.50;1.00;;;-0.50;95.00;100643.78;6068086;23;20617;-65
2024/01/19 08:35:45;;;;;;;2.08;1.98;;;-0.40;1.00;;;-0.51;94.74;100656.22;6067908;23;20171;-69
2024/01/19 08:38:15;;;;;;;2.47;1.50;;;-0.30;1.00;;;-0.47;94.99;100652.31;6067960;23;20640;-69
2024/01/19 08:40:49;;;;;;;2.08;0.95;;;-0.30;99.90;;;-0.41;94.92;100650.09;6068516;23;20160;-69
2024/01/19 08:43:18;;;;;;;4.40;1.98;;;-0.30;1.00;;;-0.39;95.10;100645.50;6067786;23;20199;-67
2024/01/19 08:49:09;;;;;;;1.10;1.00;;;-0.20;1.00;;;-0.34;94.87;100668.03;6151968;23;20252;-67
2024/01/19 08:51:38;;;;;;;3.55;3.25;;;-0.20;1.00;;;-0.26;94.59;100669.97;6155314;23;20166;-67
2024/01/19 08:54:08;;;;;;;3.03;1.48;;;-0.10;1.00;;;-0.30;94.13;100669.44;6155827;23;20178;-66
2024/01/19 08:56:37;;;;;;;1.95;1.83;;;-0.10;1.00;;;-0.29;95.11;100676.41;6155698;23;20260;-68
2024/01/19 08:59:13;;;;;;;2.38;1.25;;;-0.10;47.00;;;-0.23;94.61;100667.88;6155491;23;20154;-69
2024/01/19 09:01:42;;;;;;;1.40;1.25;;;-0.10;1.00;;;-0.12;94.61;100677.56;6156253;23;20627;-68
2024/01/19 09:04:11;;;;;;;1.27;1.13;;;0.00;1.00;;;-0.13;93.81;100678.53;6155621;23;20651;-67
2024/01/19 09:06:39;;;;;;;1.25;1.15;;;0.00;1.00;;;-0.09;93.84;100675.44;6155484;23;20525;-69
2024/01/19 09:09:14;;;;;;;2.00;1.85;;;0.00;1.00;;;0.04;93.68;100680.50;6155670;23;20165;-68
2024/01/19 09:11:43;;;;;;;1.35;1.15;;;0.10;1.00;;;0.00;93.49;100681.78;6155700;23;20159;-68
2024/01/19 09:14:13;;;;;;;1.75;1.55;;;0.10;14.70;;;0.12;93.02;100690.44;6156251;23;20241;-68
2024/01/19 09:16:43;;;;;;;3.63;1.50;;;0.20;15.50;;;0.11;93.15;100689.59;6155796;23;20186;-68
2024/01/19 09:19:13;;;;;;;5.10;1.30;;;0.20;22.90;;;0.12;92.90;100696.59;6156061;23;20162;-67
2024/01/19 09:21:44;;;;;;;1.25;1.13;;;0.30;23.40;;;0.14;92.76;100707.13;6156075;23;20217;-68
2024/01/19 09:24:14;;;;;;;0.80;0.60;;;0.30;32.70;;;0.15;92.57;100716.75;6155756;23;20252;-67
2024/01/19 09:26:43;;;;;;;2.83;2.67;;;0.30;37.50;;;0.16;93.09;100716.63;6155986;23;20276;-68
2024/01/19 09:29:12;;;;;;;2.25;1.40;;;0.30;27.10;;;0.21;92.95;100711.72;6158928;23;20162;-68
2024/01/19 09:31:44;;;;;;;8.15;1.35;;;0.30;1.00;;;0.34;92.69;100717.59;6163582;23;20162;-67
2024/01/19 09:34:14;;;;;;;2.65;2.30;;;0.40;19.60;;;0.30;93.10;100720.69;6158398;23;20161;-68
2024/01/19 09:36:43;;;;;;;3.80;3.50;;;0.40;43.30;;;0.47;92.06;100717.34;6157002;23;20186;-66
2024/01/19 09:39:12;;;;;;;3.45;2.60;;;0.50;1.00;;;0.59;91.88;100731.31;6156941;23;20150;-68
2024/01/19 09:41:50;;;;;;;1.13;1.02;;;0.70;14.80;;;0.48;91.44;100731.47;6157834;23;20189;-68
2024/01/19 09:44:21;;;;;;;1.88;1.77;;;0.60;54.10;;;0.55;91.87;100735.25;6156949;23;20181;-69
2024/01/19 09:47:22;;;;;;;1.80;1.60;;;0.70;21.80;;;0.59;91.33;100731.31;6157051;23;20517;-66
2024/01/19 09:50:04;;;;;;;3.05;1.02;;;0.70;18.70;;;0.78;91.39;100741.94;6150909;23;20552;-67
2024/01/19 09:52:49;;;;;;;1.00;0.90;;;0.80;6.80;;;0.74;90.58;100745.88;6157320;23;20221;-67
2024/01/19 09:55:20;;;;;;;1.73;1.63;;;0.90;1.00;;;0.71;91.60;100740.84;6156709;23;20618;-67
2024/01/19 09:57:51;;;;;;;1.65;0.90;;;0.80;1.00;;;0.77;91.04;100745.59;6156809;23;20186;-69
2024/01/19 10:00:21;;;;;;;1.63;1.52;;;0.90;1.00;;;0.89;91.06;100741.78;6156840;23;20178;-68
2024/01/19 10:02:52;;;;;;;1.73;1.33;;;0.90;1.00;;;0.94;90.82;100758.19;6156706;23;20158;-67
2024/01/19 10:05:22;;;;;;;1.77;1.67;;;1.00;1.00;;;1.08;89.51;100764.88;6156714;23;20175;-67
2024/01/19 10:07:55;;;;;;;1.45;1.35;;;1.10;1.00;;;1.00;89.87;100762.94;6156856;23;20186;-66
2024/01/19 10:10:23;;;;;;;3.90;2.97;;;1.10;1.00;;;1.04;89.17;100764.34;6155079;23;20170;-66
2024/01/19 10:12:53;;;;;;;1.80;1.20;;;1.20;95.90;;;1.11;89.43;100768.13;6156812;23;20170;-66
2024/01/19 10:15:23;;;;;;;2.40;2.20;;;1.20;99.90;;;0.94;89.77;100774.16;6156840;23;20158;-68
2024/01/19 10:17:54;;;;;;;3.63;1.83;;;1.10;99.90;;;0.87;89.78;100770.41;6156665;23;20197;-69
2024/01/19 10:20:23;;;;;;;1.20;1.10;;;1.00;99.90;;;1.00;89.89;100768.28;6156846;23;20229;-68
2024/01/19 10:22:50;;;;;;;1.35;1.25;;;1.10;99.90;;;0.99;89.58;100776.41;6156501;23;20209;-68
2024/01/19 10:25:20;;;;;;;1.35;1.25;;;1.10;99.90;;;1.06;90.13;100781.03;6156437;23;20178;-66
2024/01/19 10:27:51;;;;;;;1.42;1.33;;;1.20;99.90;;;1.09;89.96;100778.06;6156346;23;20463;-68